sensor_id;sensor_type;location;lat;lon;timestamp;P1;durP1;ratioP1;P2;durP2;ratioP2
1811;SDS011;904;47.814;11.134;2022-11-15T00:00:05;8.68;;;5.32;;
1811;SDS011;904;47.814;11.134;2022-11-15T00:02:33;7.38;;;5.70;;
1811;SDS011;904;47.814;11.134;2022-11-15T00:05:01;7.57;;;5.90;;
1811;SDS011;904;47.814;11.134;2022-11-15T00:07:29;10.13;;;7.20;;
1811;SDS011;904;47.814;11.134;2022-11-15T00:09:56;8.05;;;5.88;;
1811;SDS011;904;47.814;11.134;2022-11-15T00:12:23;7.00;;;5.90;;
1811;SDS011;904;47.814;11.134;2022-11-15T00:14:50;8.13;;;6.07;;
1811;SDS011;904;47.814;11.134;2022-11-15T00:17:17;9.98;;;5.85;;
1811;SDS011;904;47.814;11.134;2022-11-15T00:19:45;7.80;;;6.18;;
1811;SDS011;904;47.814;11.134;2022-11-15T00:22:13;6.30;;;4.38;;
1811;SDS011;904;47.814;11.134;2022-11-15T00:24:40;6.47;;;5.60;;
1811;SDS011;904;47.814;11.134;2022-11-15T00:27:07;9.40;;;4.70;;
1811;SDS011;904;47.814;11.134;2022-11-15T00:29:34;8.05;;;5.63;;
1811;SDS011;904;47.814;11.134;2022-11-15T00:32:03;7.93;;;5.20;;
1811;SDS011;904;47.814;11.134;2022-11-15T00:34:30;7.47;;;5.78;;
1811;SDS011;904;47.814;11.134;2022-11-15T00:36:58;7.72;;;5.45;;
1811;SDS011;904;47.814;11.134;2022-11-15T00:39:26;11.68;;;6.20;;
1811;SDS011;904;47.814;11.134;2022-11-15T00:41:54;7.55;;;5.65;;
1811;SDS011;904;47.814;11.134;2022-11-15T00:44:21;6.22;;;4.35;;
1811;SDS011;904;47.814;11.134;2022-11-15T00:46:48;6.85;;;5.80;;
1811;SDS011;904;47.814;11.134;2022-11-15T00:49:15;7.70;;;5.80;;
1811;SDS011;904;47.814;11.134;2022-11-15T00:51:42;6.10;;;5.32;;
1811;SDS011;904;47.814;11.134;2022-11-15T00:54:09;7.15;;;5.30;;
1811;SDS011;904;47.814;11.134;2022-11-15T00:56:38;6.60;;;5.00;;
1811;SDS011;904;47.814;11.134;2022-11-15T00:59:05;8.25;;;5.22;;
1811;SDS011;904;47.814;11.134;2022-11-15T01:01:32;7.10;;;4.65;;
1811;SDS011;904;47.814;11.134;2022-11-15T01:03:59;6.05;;;4.60;;
1811;SDS011;904;47.814;11.134;2022-11-15T01:06:26;5.45;;;3.70;;
1811;SDS011;904;47.814;11.134;2022-11-15T01:08:53;5.97;;;4.55;;
1811;SDS011;904;47.814;11.134;2022-11-15T01:11:21;6.03;;;4.70;;
1811;SDS011;904;47.814;11.134;2022-11-15T01:13:49;6.00;;;4.55;;
1811;SDS011;904;47.814;11.134;2022-11-15T01:16:17;4.68;;;3.55;;
1811;SDS011;904;47.814;11.134;2022-11-15T01:18:44;6.05;;;4.55;;
1811;SDS011;904;47.814;11.134;2022-11-15T01:21:12;7.13;;;4.18;;
1811;SDS011;904;47.814;11.134;2022-11-15T01:23:41;6.10;;;4.22;;
1811;SDS011;904;47.814;11.134;2022-11-15T01:26:10;4.15;;;3.30;;
1811;SDS011;904;47.814;11.134;2022-11-15T01:28:40;8.18;;;4.57;;
1811;SDS011;904;47.814;11.134;2022-11-15T01:31:11;4.30;;;3.60;;
1811;SDS011;904;47.814;11.134;2022-11-15T01:33:40;6.53;;;4.15;;
1811;SDS011;904;47.814;11.134;2022-11-15T01:39:28;6.68;;;4.13;;
1811;SDS011;904;47.814;11.134;2022-11-15T01:41:55;6.68;;;4.45;;
1811;SDS011;904;47.814;11.134;2022-11-15T01:44:31;7.65;;;4.40;;
1811;SDS011;904;47.814;11.134;2022-11-15T01:47:09;6.15;;;4.00;;
1811;SDS011;904;47.814;11.134;2022-11-15T01:49:40;7.30;;;4.20;;
1811;SDS011;904;47.814;11.134;2022-11-15T01:52:13;6.53;;;3.67;;
1811;SDS011;904;47.814;11.134;2022-11-15T01:54:44;6.68;;;4.15;;
1811;SDS011;904;47.814;11.134;2022-11-15T01:57:11;7.45;;;4.45;;
1811;SDS011;904;47.814;11.134;2022-11-15T01:59:40;7.60;;;5.25;;
1811;SDS011;904;47.814;11.134;2022-11-15T02:02:10;6.22;;;3.88;;
1811;SDS011;904;47.814;11.134;2022-11-15T02:04:39;6.18;;;4.03;;
1811;SDS011;904;47.814;11.134;2022-11-15T02:07:08;7.60;;;3.78;;
1811;SDS011;904;47.814;11.134;2022-11-15T02:09:37;9.48;;;4.32;;
1811;SDS011;904;47.814;11.134;2022-11-15T02:12:05;5.32;;;3.72;;
1811;SDS011;904;47.814;11.134;2022-11-15T02:14:35;7.78;;;4.45;;
1811;SDS011;904;47.814;11.134;2022-11-15T02:17:06;8.35;;;4.15;;
1811;SDS011;904;47.814;11.134;2022-11-15T02:19:56;8.25;;;4.68;;
1811;SDS011;904;47.814;11.134;2022-11-15T02:22:55;4.97;;;3.60;;
1811;SDS011;904;47.814;11.134;2022-11-15T02:25:38;5.32;;;3.80;;
1811;SDS011;904;47.814;11.134;2022-11-15T02:31:21;5.70;;;3.33;;
1811;SDS011;904;47.814;11.134;2022-11-15T02:33:55;4.82;;;3.92;;
1811;SDS011;904;47.814;11.134;2022-11-15T02:36:33;6.20;;;3.35;;
1811;SDS011;904;47.814;11.134;2022-11-15T02:39:07;5.00;;;3.95;;
1811;SDS011;904;47.814;11.134;2022-11-15T02:41:41;5.70;;;3.75;;
1811;SDS011;904;47.814;11.134;2022-11-15T02:44:14;4.85;;;3.17;;
1811;SDS011;904;47.814;11.134;2022-11-15T02:46:48;5.85;;;3.70;;
1811;SDS011;904;47.814;11.134;2022-11-15T02:49:36;6.57;;;3.25;;
1811;SDS011;904;47.814;11.134;2022-11-15T02:52:05;4.88;;;3.38;;
1811;SDS011;904;47.814;11.134;2022-11-15T02:54:33;6.15;;;3.58;;
1811;SDS011;904;47.814;11.134;2022-11-15T02:57:01;5.32;;;3.58;;
1811;SDS011;904;47.814;11.134;2022-11-15T03:05:25;9.02;;;3.92;;
1811;SDS011;904;47.814;11.134;2022-11-15T03:08:01;4.95;;;3.05;;
1811;SDS011;904;47.814;11.134;2022-11-15T03:10:34;4.32;;;3.17;;
1811;SDS011;904;47.814;11.134;2022-11-15T03:13:09;3.80;;;2.80;;
1811;SDS011;904;47.814;11.134;2022-11-15T03:15:43;6.20;;;4.07;;
1811;SDS011;904;47.814;11.134;2022-11-15T03:18:19;4.15;;;2.95;;
1811;SDS011;904;47.814;11.134;2022-11-15T03:20:49;4.70;;;3.05;;
1811;SDS011;904;47.814;11.134;2022-11-15T03:23:16;4.68;;;3.35;;
1811;SDS011;904;47.814;11.134;2022-11-15T03:25:45;3.70;;;2.67;;
1811;SDS011;904;47.814;11.134;2022-11-15T03:28:16;4.68;;;3.38;;
1811;SDS011;904;47.814;11.134;2022-11-15T03:30:47;4.47;;;2.75;;
1811;SDS011;904;47.814;11.134;2022-11-15T03:33:15;4.70;;;2.80;;
1811;SDS011;904;47.814;11.134;2022-11-15T03:35:44;4.85;;;3.30;;
1811;SDS011;904;47.814;11.134;2022-11-15T03:38:14;6.05;;;3.45;;
1811;SDS011;904;47.814;11.134;2022-11-15T03:40:47;4.18;;;3.20;;
1811;SDS011;904;47.814;11.134;2022-11-15T03:43:22;4.95;;;3.45;;
1811;SDS011;904;47.814;11.134;2022-11-15T03:45:58;8.60;;;3.28;;
1811;SDS011;904;47.814;11.134;2022-11-15T03:48:30;5.60;;;3.03;;
1811;SDS011;904;47.814;11.134;2022-11-15T03:51:01;4.40;;;2.90;;
1811;SDS011;904;47.814;11.134;2022-11-15T03:53:29;6.63;;;4.88;;
1811;SDS011;904;47.814;11.134;2022-11-15T03:55:57;10.25;;;6.38;;
1811;SDS011;904;47.814;11.134;2022-11-15T03:58:24;7.55;;;6.03;;
1811;SDS011;904;47.814;11.134;2022-11-15T04:00:51;10.25;;;6.30;;
1811;SDS011;904;47.814;11.134;2022-11-15T04:03:18;11.68;;;7.43;;
1811;SDS011;904;47.814;11.134;2022-11-15T04:05:46;7.78;;;3.95;;
1811;SDS011;904;47.814;11.134;2022-11-15T04:08:13;5.40;;;3.80;;
1811;SDS011;904;47.814;11.134;2022-11-15T04:10:40;6.75;;;3.80;;
1811;SDS011;904;47.814;11.134;2022-11-15T04:13:07;6.38;;;3.85;;
1811;SDS011;904;47.814;11.134;2022-11-15T04:15:34;5.53;;;3.90;;
1811;SDS011;904;47.814;11.134;2022-11-15T04:18:01;5.35;;;3.00;;
1811;SDS011;904;47.814;11.134;2022-11-15T04:20:28;5.88;;;3.67;;
1811;SDS011;904;47.814;11.134;2022-11-15T04:23:17;7.88;;;4.18;;
1811;SDS011;904;47.814;11.134;2022-11-15T04:26:03;5.35;;;3.63;;
1811;SDS011;904;47.814;11.134;2022-11-15T04:28:32;4.55;;;3.30;;
1811;SDS011;904;47.814;11.134;2022-11-15T04:30:59;4.45;;;3.20;;
1811;SDS011;904;47.814;11.134;2022-11-15T04:33:26;6.88;;;4.00;;
1811;SDS011;904;47.814;11.134;2022-11-15T04:35:53;6.22;;;4.38;;
1811;SDS011;904;47.814;11.134;2022-11-15T04:38:39;38.40;;;29.13;;
1811;SDS011;904;47.814;11.134;2022-11-15T04:41:05;24.27;;;21.25;;
1811;SDS011;904;47.814;11.134;2022-11-15T04:43:32;22.40;;;15.25;;
1811;SDS011;904;47.814;11.134;2022-11-15T04:45:59;17.73;;;10.45;;
1811;SDS011;904;47.814;11.134;2022-11-15T04:48:26;17.33;;;7.65;;
1811;SDS011;904;47.814;11.134;2022-11-15T04:50:53;4.80;;;3.78;;
1811;SDS011;904;47.814;11.134;2022-11-15T04:53:20;5.28;;;3.40;;
1811;SDS011;904;47.814;11.134;2022-11-15T04:55:48;4.65;;;3.50;;
1811;SDS011;904;47.814;11.134;2022-11-15T04:58:15;6.53;;;4.15;;
1811;SDS011;904;47.814;11.134;2022-11-15T05:00:42;4.43;;;3.30;;
1811;SDS011;904;47.814;11.134;2022-11-15T05:03:09;4.43;;;3.08;;
1811;SDS011;904;47.814;11.134;2022-11-15T05:05:54;4.60;;;3.60;;
1811;SDS011;904;47.814;11.134;2022-11-15T05:08:21;11.00;;;4.55;;
1811;SDS011;904;47.814;11.134;2022-11-15T05:10:49;5.20;;;3.70;;
1811;SDS011;904;47.814;11.134;2022-11-15T05:13:16;4.72;;;3.53;;
1811;SDS011;904;47.814;11.134;2022-11-15T05:15:43;3.63;;;2.55;;
1811;SDS011;904;47.814;11.134;2022-11-15T05:18:10;6.57;;;3.05;;
1811;SDS011;904;47.814;11.134;2022-11-15T05:20:37;5.38;;;3.78;;
1811;SDS011;904;47.814;11.134;2022-11-15T05:23:04;5.65;;;4.00;;
1811;SDS011;904;47.814;11.134;2022-11-15T05:25:31;5.03;;;3.33;;
1811;SDS011;904;47.814;11.134;2022-11-15T05:27:59;3.92;;;2.80;;
1811;SDS011;904;47.814;11.134;2022-11-15T05:30:26;4.97;;;3.13;;
1811;SDS011;904;47.814;11.134;2022-11-15T05:32:53;3.53;;;2.60;;
1811;SDS011;904;47.814;11.134;2022-11-15T05:35:22;5.13;;;3.33;;
1811;SDS011;904;47.814;11.134;2022-11-15T05:37:57;4.85;;;3.03;;
1811;SDS011;904;47.814;11.134;2022-11-15T05:40:24;4.88;;;3.90;;
1811;SDS011;904;47.814;11.134;2022-11-15T05:42:51;6.93;;;4.63;;
1811;SDS011;904;47.814;11.134;2022-11-15T05:45:20;3.95;;;2.95;;
1811;SDS011;904;47.814;11.134;2022-11-15T05:47:47;5.10;;;3.30;;
1811;SDS011;904;47.814;11.134;2022-11-15T05:50:15;5.28;;;3.55;;
1811;SDS011;904;47.814;11.134;2022-11-15T05:52:44;5.30;;;3.67;;
1811;SDS011;904;47.814;11.134;2022-11-15T05:55:12;6.53;;;3.35;;
1811;SDS011;904;47.814;11.134;2022-11-15T05:57:39;4.93;;;3.13;;
1811;SDS011;904;47.814;11.134;2022-11-15T06:00:07;7.18;;;3.50;;
1811;SDS011;904;47.814;11.134;2022-11-15T06:02:36;4.00;;;3.35;;
1811;SDS011;904;47.814;11.134;2022-11-15T06:05:03;5.15;;;3.70;;
1811;SDS011;904;47.814;11.134;2022-11-15T06:07:31;3.97;;;3.20;;
1811;SDS011;904;47.814;11.134;2022-11-15T06:09:58;7.13;;;3.75;;
1811;SDS011;904;47.814;11.134;2022-11-15T06:12:24;7.38;;;4.70;;
1811;SDS011;904;47.814;11.134;2022-11-15T06:14:51;6.63;;;4.90;;
1811;SDS011;904;47.814;11.134;2022-11-15T06:17:18;7.15;;;4.53;;
1811;SDS011;904;47.814;11.134;2022-11-15T06:19:47;9.70;;;5.75;;
1811;SDS011;904;47.814;11.134;2022-11-15T06:22:14;8.80;;;4.72;;
1811;SDS011;904;47.814;11.134;2022-11-15T06:24:40;6.47;;;5.55;;
1811;SDS011;904;47.814;11.134;2022-11-15T06:27:09;6.85;;;5.28;;
1811;SDS011;904;47.814;11.134;2022-11-15T06:29:36;9.77;;;5.18;;
1811;SDS011;904;47.814;11.134;2022-11-15T06:32:04;5.70;;;3.92;;
1811;SDS011;904;47.814;11.134;2022-11-15T06:34:31;5.93;;;4.65;;
1811;SDS011;904;47.814;11.134;2022-11-15T06:36:59;6.88;;;4.03;;
1811;SDS011;904;47.814;11.134;2022-11-15T06:39:26;5.60;;;3.60;;
1811;SDS011;904;47.814;11.134;2022-11-15T06:41:53;10.40;;;4.75;;
1811;SDS011;904;47.814;11.134;2022-11-15T06:44:20;5.07;;;3.90;;
1811;SDS011;904;47.814;11.134;2022-11-15T06:46:47;4.35;;;3.47;;
1811;SDS011;904;47.814;11.134;2022-11-15T06:49:14;5.18;;;3.65;;
1811;SDS011;904;47.814;11.134;2022-11-15T06:51:41;5.80;;;3.90;;
1811;SDS011;904;47.814;11.134;2022-11-15T06:54:10;8.05;;;3.75;;
1811;SDS011;904;47.814;11.134;2022-11-15T06:56:37;9.38;;;5.50;;
1811;SDS011;904;47.814;11.134;2022-11-15T06:59:04;6.50;;;5.25;;
1811;SDS011;904;47.814;11.134;2022-11-15T07:01:31;12.75;;;7.72;;
1811;SDS011;904;47.814;11.134;2022-11-15T07:03:58;10.30;;;7.38;;
1811;SDS011;904;47.814;11.134;2022-11-15T07:06:25;10.90;;;6.57;;
1811;SDS011;904;47.814;11.134;2022-11-15T07:08:52;7.10;;;4.70;;
1811;SDS011;904;47.814;11.134;2022-11-15T07:11:20;7.53;;;4.72;;
1811;SDS011;904;47.814;11.134;2022-11-15T07:13:47;6.30;;;4.70;;
1811;SDS011;904;47.814;11.134;2022-11-15T07:16:14;4.90;;;3.40;;
1811;SDS011;904;47.814;11.134;2022-11-15T07:18:41;7.18;;;3.80;;
1811;SDS011;904;47.814;11.134;2022-11-15T07:21:08;4.72;;;3.55;;
1811;SDS011;904;47.814;11.134;2022-11-15T07:23:38;5.18;;;3.88;;
1811;SDS011;904;47.814;11.134;2022-11-15T07:26:05;7.18;;;3.72;;
1811;SDS011;904;47.814;11.134;2022-11-15T07:28:34;5.10;;;4.00;;
1811;SDS011;904;47.814;11.134;2022-11-15T07:31:02;7.68;;;5.55;;
1811;SDS011;904;47.814;11.134;2022-11-15T07:33:29;9.68;;;6.55;;
1811;SDS011;904;47.814;11.134;2022-11-15T07:35:58;9.27;;;5.85;;
1811;SDS011;904;47.814;11.134;2022-11-15T07:38:27;7.53;;;5.85;;
1811;SDS011;904;47.814;11.134;2022-11-15T07:40:57;8.00;;;5.25;;
1811;SDS011;904;47.814;11.134;2022-11-15T07:43:25;8.80;;;6.20;;
1811;SDS011;904;47.814;11.134;2022-11-15T07:45:56;12.23;;;7.82;;
1811;SDS011;904;47.814;11.134;2022-11-15T07:48:23;11.02;;;6.00;;
1811;SDS011;904;47.814;11.134;2022-11-15T07:50:50;3.60;;;3.20;;
1811;SDS011;904;47.814;11.134;2022-11-15T07:53:17;5.13;;;4.43;;
1811;SDS011;904;47.814;11.134;2022-11-15T07:55:44;5.45;;;4.43;;
1811;SDS011;904;47.814;11.134;2022-11-15T07:58:11;7.93;;;5.68;;
1811;SDS011;904;47.814;11.134;2022-11-15T08:00:38;7.20;;;5.05;;
1811;SDS011;904;47.814;11.134;2022-11-15T08:03:08;8.73;;;4.95;;
1811;SDS011;904;47.814;11.134;2022-11-15T08:05:36;7.47;;;4.72;;
1811;SDS011;904;47.814;11.134;2022-11-15T08:08:04;7.30;;;5.30;;
1811;SDS011;904;47.814;11.134;2022-11-15T08:10:32;7.82;;;4.63;;
1811;SDS011;904;47.814;11.134;2022-11-15T08:13:00;6.50;;;4.88;;
1811;SDS011;904;47.814;11.134;2022-11-15T08:15:29;5.63;;;5.13;;
1811;SDS011;904;47.814;11.134;2022-11-15T08:17:57;5.80;;;5.00;;
1811;SDS011;904;47.814;11.134;2022-11-15T08:20:26;5.75;;;4.55;;
1811;SDS011;904;47.814;11.134;2022-11-15T08:22:55;5.32;;;4.75;;
1811;SDS011;904;47.814;11.134;2022-11-15T08:25:22;5.43;;;4.55;;
1811;SDS011;904;47.814;11.134;2022-11-15T08:27:51;4.03;;;3.40;;
1811;SDS011;904;47.814;11.134;2022-11-15T08:30:18;5.70;;;3.57;;
1811;SDS011;904;47.814;11.134;2022-11-15T08:32:45;5.70;;;3.90;;
1811;SDS011;904;47.814;11.134;2022-11-15T08:35:13;5.40;;;3.60;;
1811;SDS011;904;47.814;11.134;2022-11-15T08:37:41;4.83;;;3.60;;
1811;SDS011;904;47.814;11.134;2022-11-15T08:40:09;4.10;;;3.40;;
1811;SDS011;904;47.814;11.134;2022-11-15T08:42:36;4.70;;;3.53;;
1811;SDS011;904;47.814;11.134;2022-11-15T08:45:03;5.53;;;4.13;;
1811;SDS011;904;47.814;11.134;2022-11-15T08:47:31;6.87;;;3.47;;
1811;SDS011;904;47.814;11.134;2022-11-15T08:49:58;4.83;;;3.33;;
1811;SDS011;904;47.814;11.134;2022-11-15T08:52:25;3.60;;;2.60;;
1811;SDS011;904;47.814;11.134;2022-11-15T08:54:54;3.07;;;2.20;;
1811;SDS011;904;47.814;11.134;2022-11-15T08:57:21;4.20;;;2.73;;
1811;SDS011;904;47.814;11.134;2022-11-15T08:59:48;3.20;;;2.67;;
1811;SDS011;904;47.814;11.134;2022-11-15T09:02:15;4.10;;;3.20;;
1811;SDS011;904;47.814;11.134;2022-11-15T09:04:42;5.40;;;3.10;;
1811;SDS011;904;47.814;11.134;2022-11-15T09:07:10;5.10;;;2.80;;
1811;SDS011;904;47.814;11.134;2022-11-15T09:09:37;5.77;;;2.50;;
1811;SDS011;904;47.814;11.134;2022-11-15T09:12:06;3.97;;;3.07;;
1811;SDS011;904;47.814;11.134;2022-11-15T09:14:34;6.00;;;3.63;;
1811;SDS011;904;47.814;11.134;2022-11-15T09:17:01;4.20;;;3.07;;
1811;SDS011;904;47.814;11.134;2022-11-15T09:19:28;5.90;;;2.73;;
1811;SDS011;904;47.814;11.134;2022-11-15T09:21:55;3.70;;;2.57;;
1811;SDS011;904;47.814;11.134;2022-11-15T09:24:22;4.37;;;2.30;;
1811;SDS011;904;47.814;11.134;2022-11-15T09:26:49;8.37;;;3.00;;
1811;SDS011;904;47.814;11.134;2022-11-15T09:29:18;3.73;;;2.60;;
1811;SDS011;904;47.814;11.134;2022-11-15T09:31:45;5.63;;;2.80;;
1811;SDS011;904;47.814;11.134;2022-11-15T09:34:12;3.77;;;2.67;;
1811;SDS011;904;47.814;11.134;2022-11-15T09:36:39;3.67;;;2.50;;
1811;SDS011;904;47.814;11.134;2022-11-15T09:39:06;4.40;;;2.47;;
1811;SDS011;904;47.814;11.134;2022-11-15T09:41:38;4.07;;;2.47;;
1811;SDS011;904;47.814;11.134;2022-11-15T09:44:22;3.87;;;2.60;;
1811;SDS011;904;47.814;11.134;2022-11-15T09:47:07;8.23;;;2.80;;
1811;SDS011;904;47.814;11.134;2022-11-15T09:49:51;5.27;;;2.53;;
1811;SDS011;904;47.814;11.134;2022-11-15T09:52:19;4.00;;;2.70;;
1811;SDS011;904;47.814;11.134;2022-11-15T09:54:47;4.27;;;2.57;;
1811;SDS011;904;47.814;11.134;2022-11-15T09:57:21;4.73;;;3.27;;
1811;SDS011;904;47.814;11.134;2022-11-15T10:00:02;8.47;;;3.43;;
1811;SDS011;904;47.814;11.134;2022-11-15T10:02:38;4.33;;;3.00;;
1811;SDS011;904;47.814;11.134;2022-11-15T10:05:18;6.30;;;3.90;;
1811;SDS011;904;47.814;11.134;2022-11-15T10:07:49;5.50;;;3.40;;
1811;SDS011;904;47.814;11.134;2022-11-15T10:10:27;6.90;;;3.63;;
1811;SDS011;904;47.814;11.134;2022-11-15T10:13:01;5.50;;;3.33;;
1811;SDS011;904;47.814;11.134;2022-11-15T10:15:30;6.20;;;2.93;;
1811;SDS011;904;47.814;11.134;2022-11-15T10:18:04;4.40;;;2.27;;
1811;SDS011;904;47.814;11.134;2022-11-15T10:20:39;3.40;;;2.60;;
1811;SDS011;904;47.814;11.134;2022-11-15T10:23:13;5.50;;;2.67;;
1811;SDS011;904;47.814;11.134;2022-11-15T10:25:42;3.17;;;2.00;;
1811;SDS011;904;47.814;11.134;2022-11-15T10:28:11;6.77;;;2.30;;
1811;SDS011;904;47.814;11.134;2022-11-15T10:30:43;3.90;;;2.40;;
1811;SDS011;904;47.814;11.134;2022-11-15T10:33:20;3.60;;;2.37;;
1811;SDS011;904;47.814;11.134;2022-11-15T10:38:51;3.60;;;2.53;;
1811;SDS011;904;47.814;11.134;2022-11-15T10:41:29;3.77;;;2.30;;
1811;SDS011;904;47.814;11.134;2022-11-15T10:44:07;4.27;;;2.73;;
1811;SDS011;904;47.814;11.134;2022-11-15T10:46:45;5.50;;;3.23;;
1811;SDS011;904;47.814;11.134;2022-11-15T10:49:16;3.80;;;2.30;;
1811;SDS011;904;47.814;11.134;2022-11-15T10:51:46;3.87;;;2.17;;
1811;SDS011;904;47.814;11.134;2022-11-15T10:54:22;3.87;;;2.90;;
1811;SDS011;904;47.814;11.134;2022-11-15T10:56:54;3.97;;;2.50;;
1811;SDS011;904;47.814;11.134;2022-11-15T10:59:23;3.63;;;2.53;;
1811;SDS011;904;47.814;11.134;2022-11-15T11:02:00;3.53;;;2.17;;
1811;SDS011;904;47.814;11.134;2022-11-15T11:04:27;5.07;;;2.20;;
1811;SDS011;904;47.814;11.134;2022-11-15T11:06:55;7.03;;;2.57;;
1811;SDS011;904;47.814;11.134;2022-11-15T11:09:28;3.27;;;2.07;;
1811;SDS011;904;47.814;11.134;2022-11-15T11:11:58;5.33;;;2.60;;
1811;SDS011;904;47.814;11.134;2022-11-15T11:14:26;4.63;;;2.30;;
1811;SDS011;904;47.814;11.134;2022-11-15T11:17:01;3.27;;;2.10;;
1811;SDS011;904;47.814;11.134;2022-11-15T11:19:35;3.17;;;2.00;;
1811;SDS011;904;47.814;11.134;2022-11-15T11:22:16;5.87;;;1.90;;
1811;SDS011;904;47.814;11.134;2022-11-15T11:24:51;4.23;;;2.30;;
1811;SDS011;904;47.814;11.134;2022-11-15T11:27:32;18.93;;;2.90;;
1811;SDS011;904;47.814;11.134;2022-11-15T11:30:08;3.93;;;2.67;;
1811;SDS011;904;47.814;11.134;2022-11-15T11:35:40;5.07;;;2.50;;
1811;SDS011;904;47.814;11.134;2022-11-15T11:38:22;5.90;;;3.07;;
1811;SDS011;904;47.814;11.134;2022-11-15T11:41:00;4.10;;;2.60;;
1811;SDS011;904;47.814;11.134;2022-11-15T11:43:37;2.90;;;2.10;;
1811;SDS011;904;47.814;11.134;2022-11-15T11:46:25;3.37;;;2.43;;
1811;SDS011;904;47.814;11.134;2022-11-15T11:49:03;3.27;;;2.10;;
1811;SDS011;904;47.814;11.134;2022-11-15T11:51:36;2.97;;;2.03;;
1811;SDS011;904;47.814;11.134;2022-11-15T11:54:09;3.40;;;2.00;;
1811;SDS011;904;47.814;11.134;2022-11-15T11:56:40;3.87;;;2.27;;
1811;SDS011;904;47.814;11.134;2022-11-15T11:59:12;4.10;;;2.33;;
1811;SDS011;904;47.814;11.134;2022-11-15T12:01:47;4.63;;;2.20;;
1811;SDS011;904;47.814;11.134;2022-11-15T12:04:16;6.17;;;2.43;;
1811;SDS011;904;47.814;11.134;2022-11-15T12:06:49;3.33;;;1.80;;
1811;SDS011;904;47.814;11.134;2022-11-15T12:09:21;3.07;;;2.10;;
1811;SDS011;904;47.814;11.134;2022-11-15T12:11:58;4.90;;;2.20;;
1811;SDS011;904;47.814;11.134;2022-11-15T12:14:32;2.80;;;1.90;;
1811;SDS011;904;47.814;11.134;2022-11-15T12:17:04;4.10;;;2.23;;
1811;SDS011;904;47.814;11.134;2022-11-15T12:19:33;3.40;;;1.73;;
1811;SDS011;904;47.814;11.134;2022-11-15T12:22:02;3.17;;;1.97;;
1811;SDS011;904;47.814;11.134;2022-11-15T12:24:34;3.30;;;2.40;;
1811;SDS011;904;47.814;11.134;2022-11-15T12:27:06;3.23;;;2.10;;
1811;SDS011;904;47.814;11.134;2022-11-15T12:29:42;4.17;;;2.20;;
1811;SDS011;904;47.814;11.134;2022-11-15T12:32:17;4.60;;;2.37;;
1811;SDS011;904;47.814;11.134;2022-11-15T12:34:52;3.10;;;2.10;;
1811;SDS011;904;47.814;11.134;2022-11-15T12:37:33;5.20;;;2.30;;
1811;SDS011;904;47.814;11.134;2022-11-15T12:40:33;3.50;;;2.50;;
1811;SDS011;904;47.814;11.134;2022-11-15T12:46:01;6.47;;;2.60;;
1811;SDS011;904;47.814;11.134;2022-11-15T12:48:48;8.23;;;2.40;;
1811;SDS011;904;47.814;11.134;2022-11-15T12:51:22;4.87;;;2.73;;
1811;SDS011;904;47.814;11.134;2022-11-15T13:00:36;4.10;;;2.63;;
1811;SDS011;904;47.814;11.134;2022-11-15T13:03:17;2.97;;;1.97;;
1811;SDS011;904;47.814;11.134;2022-11-15T13:06:00;3.10;;;1.87;;
1811;SDS011;904;47.814;11.134;2022-11-15T13:08:43;4.50;;;1.90;;
1811;SDS011;904;47.814;11.134;2022-11-15T13:20:26;2.83;;;1.60;;
1811;SDS011;904;47.814;11.134;2022-11-15T13:22:59;3.00;;;1.73;;
1811;SDS011;904;47.814;11.134;2022-11-15T13:28:33;4.20;;;2.40;;
1811;SDS011;904;47.814;11.134;2022-11-15T13:31:12;3.67;;;2.10;;
1811;SDS011;904;47.814;11.134;2022-11-15T13:33:45;3.30;;;2.17;;
1811;SDS011;904;47.814;11.134;2022-11-15T13:36:13;4.00;;;2.33;;
1811;SDS011;904;47.814;11.134;2022-11-15T13:38:44;4.00;;;1.90;;
1811;SDS011;904;47.814;11.134;2022-11-15T13:41:23;3.37;;;1.90;;
1811;SDS011;904;47.814;11.134;2022-11-15T13:43:51;3.07;;;2.10;;
1811;SDS011;904;47.814;11.134;2022-11-15T13:46:20;4.40;;;2.30;;
1811;SDS011;904;47.814;11.134;2022-11-15T13:48:51;2.80;;;1.80;;
1811;SDS011;904;47.814;11.134;2022-11-15T13:51:21;3.83;;;1.90;;
1811;SDS011;904;47.814;11.134;2022-11-15T13:53:52;4.57;;;2.10;;
1811;SDS011;904;47.814;11.134;2022-11-15T13:56:23;2.87;;;2.07;;
1811;SDS011;904;47.814;11.134;2022-11-15T13:58:52;5.10;;;1.93;;
1811;SDS011;904;47.814;11.134;2022-11-15T14:01:20;4.73;;;1.70;;
1811;SDS011;904;47.814;11.134;2022-11-15T14:03:53;2.57;;;1.50;;
1811;SDS011;904;47.814;11.134;2022-11-15T14:06:23;3.77;;;2.27;;
1811;SDS011;904;47.814;11.134;2022-11-15T14:09:03;3.80;;;1.97;;
1811;SDS011;904;47.814;11.134;2022-11-15T14:14:51;6.80;;;2.23;;
1811;SDS011;904;47.814;11.134;2022-11-15T14:17:19;4.60;;;2.60;;
1811;SDS011;904;47.814;11.134;2022-11-15T14:19:58;3.93;;;2.40;;
1811;SDS011;904;47.814;11.134;2022-11-15T14:22:26;7.03;;;2.80;;
1811;SDS011;904;47.814;11.134;2022-11-15T14:25:05;5.40;;;2.33;;
1811;SDS011;904;47.814;11.134;2022-11-15T14:27:43;6.33;;;3.00;;
1811;SDS011;904;47.814;11.134;2022-11-15T14:30:14;4.27;;;2.57;;
1811;SDS011;904;47.814;11.134;2022-11-15T14:32:43;6.73;;;2.77;;
1811;SDS011;904;47.814;11.134;2022-11-15T14:35:12;7.90;;;3.17;;
1811;SDS011;904;47.814;11.134;2022-11-15T14:37:42;16.03;;;3.93;;
1811;SDS011;904;47.814;11.134;2022-11-15T14:40:11;9.90;;;3.00;;
1811;SDS011;904;47.814;11.134;2022-11-15T14:42:39;5.17;;;3.10;;
1811;SDS011;904;47.814;11.134;2022-11-15T14:45:10;3.10;;;2.07;;
1811;SDS011;904;47.814;11.134;2022-11-15T14:47:39;7.40;;;2.97;;
1811;SDS011;904;47.814;11.134;2022-11-15T14:50:10;5.07;;;2.93;;
1811;SDS011;904;47.814;11.134;2022-11-15T14:52:38;5.13;;;2.87;;
1811;SDS011;904;47.814;11.134;2022-11-15T14:55:10;6.10;;;3.40;;
1811;SDS011;904;47.814;11.134;2022-11-15T14:57:43;4.87;;;2.90;;
1811;SDS011;904;47.814;11.134;2022-11-15T15:00:12;5.60;;;2.70;;
1811;SDS011;904;47.814;11.134;2022-11-15T15:02:40;4.20;;;2.60;;
1811;SDS011;904;47.814;11.134;2022-11-15T15:05:15;4.07;;;3.20;;
1811;SDS011;904;47.814;11.134;2022-11-15T15:07:43;6.53;;;4.40;;
1811;SDS011;904;47.814;11.134;2022-11-15T15:10:11;5.33;;;3.87;;
1811;SDS011;904;47.814;11.134;2022-11-15T15:12:39;4.60;;;3.90;;
1811;SDS011;904;47.814;11.134;2022-11-15T15:15:09;4.63;;;3.33;;
1811;SDS011;904;47.814;11.134;2022-11-15T15:17:41;5.77;;;3.40;;
1811;SDS011;904;47.814;11.134;2022-11-15T15:20:08;4.27;;;2.60;;
1811;SDS011;904;47.814;11.134;2022-11-15T15:22:36;9.27;;;3.67;;
1811;SDS011;904;47.814;11.134;2022-11-15T15:25:10;7.80;;;3.83;;
1811;SDS011;904;47.814;11.134;2022-11-15T15:27:47;6.60;;;4.50;;
1811;SDS011;904;47.814;11.134;2022-11-15T15:30:16;5.23;;;3.17;;
1811;SDS011;904;47.814;11.134;2022-11-15T15:32:43;13.20;;;11.47;;
1811;SDS011;904;47.814;11.134;2022-11-15T15:35:11;6.33;;;5.57;;
1811;SDS011;904;47.814;11.134;2022-11-15T15:37:39;7.93;;;6.10;;
1811;SDS011;904;47.814;11.134;2022-11-15T15:40:11;8.73;;;7.83;;
1811;SDS011;904;47.814;11.134;2022-11-15T15:42:41;6.07;;;5.47;;
1811;SDS011;904;47.814;11.134;2022-11-15T15:45:09;5.43;;;4.50;;
1811;SDS011;904;47.814;11.134;2022-11-15T15:47:38;10.30;;;4.10;;
1811;SDS011;904;47.814;11.134;2022-11-15T15:50:09;9.03;;;5.13;;
1811;SDS011;904;47.814;11.134;2022-11-15T15:52:46;7.63;;;4.80;;
1811;SDS011;904;47.814;11.134;2022-11-15T15:55:13;7.93;;;5.67;;
1811;SDS011;904;47.814;11.134;2022-11-15T15:57:40;6.93;;;5.20;;
1811;SDS011;904;47.814;11.134;2022-11-15T16:00:08;7.43;;;5.77;;
1811;SDS011;904;47.814;11.134;2022-11-15T16:02:37;7.90;;;6.17;;
1811;SDS011;904;47.814;11.134;2022-11-15T16:05:05;13.77;;;7.60;;
1811;SDS011;904;47.814;11.134;2022-11-15T16:07:32;8.63;;;7.10;;
1811;SDS011;904;47.814;11.134;2022-11-15T16:09:59;18.13;;;10.50;;
1811;SDS011;904;47.814;11.134;2022-11-15T16:12:26;15.60;;;10.00;;
1811;SDS011;904;47.814;11.134;2022-11-15T16:14:53;17.03;;;9.07;;
1811;SDS011;904;47.814;11.134;2022-11-15T16:17:21;14.80;;;8.87;;